• Join FlightAware (Why Join?)
  • Login
  • US Flag 
08:41PM EST


 

Airport Tracker/Info


-or-


 

Live Flight TrackerFlight Track Log ✈ PDT4226 ✈ 11-Oct-2013 ✈ KBGM - KPHL

Flight Track Log - Related Links

Times and Time Zones

All times are in EDT time to prevent confusion due to time zone crossing. See the PDT4226 flight status page for this flight to view local times or setup timezone preferences in your user account.

Time Position Orientation Groundspeed Altitude Reporting Facility
EDT Latitude Longitude Course Direction KTS MPH feet Rate Location/Type
02:49PM 41.9713 -75.9021 154° Southeast  Level Estimated
02:50PM 41.9120 -75.8828 160° South  Level Estimated
02:51PM 41.8527 -75.8636 159° South  Level Estimated
02:52PM 41.7923 -75.8526 172° South  Level FlightAware Approximate
02:53PM 41.7318 -75.8417 172° South  Level FlightAware Approximate
02:54PM 41.6726 -75.8220 153° Southeast  Level Estimated
02:55PM 41.6134 -75.8024 161° South  Level Estimated
02:56PM 41.5543 -75.7820 166° South  Level FlightAware Approximate
02:57PM 41.4952 -75.7617 166° South  Level FlightAware Approximate
02:58PM 41.4360 -75.7422 162° South  Level Estimated
02:59PM 41.3776 -75.7186 163° South  Level FlightAware Approximate
03:00PM 41.3192 -75.6949 163° South  Level FlightAware Approximate
03:01PM 41.2609 -75.6714 163° South  Level FlightAware Approximate
03:02PM 41.2015 -75.6526 159° South  Level Estimated
03:03PM 41.1422 -75.6339 163° South  Level Estimated
03:04PM 41.0842 -75.6087 162° South  Level FlightAware Approximate
03:05PM 41.0262 -75.5835 162° South  Level FlightAware Approximate
03:06PM 40.9682 -75.5584 162° South  Level FlightAware Approximate
03:07PM 40.9087 -75.5409 190° South  Level Estimated
03:08PM 40.8478 -75.5348 176° South  Level FlightAware Approximate
03:09PM 40.7870 -75.5286 176° South  Level FlightAware Approximate
03:10PM 40.7262 -75.5226 176° South  Level FlightAware Approximate
03:11PM 40.6670 -75.5028 187° South  Level Estimated
03:12PM 40.6061 -75.5060 182° South  Level FlightAware Approximate
03:13PM 40.5473 -75.4845 190° South  Level Estimated
03:14PM 40.4871 -75.4978 190° South  Level FlightAware Approximate
03:15PM 40.4290 -75.4733 180° South  Level Estimated
03:15PM 40.6167 -75.4833 159° South 238 274 6,900  Level Philadelphia TRACON
03:15PM 40.6000 -75.4833 180° South 237 273 6,900  Level Philadelphia TRACON
03:16PM 40.3629 -75.4455 143° Southeast  Level Estimated
03:16PM 40.5500 -75.5000 194° South 235 270 6,900  Level Philadelphia TRACON
03:17PM 40.2934 -75.4467 181° South  Level FlightAware Approximate
03:17PM 40.4833 -75.5167 191° South 238 274 6,900  Level Philadelphia TRACON
03:18PM 40.2284 -75.4147 143° Southeast  Level Estimated
03:18PM 40.4167 -75.5167 180° South 233 268 6,900  Level Philadelphia TRACON
03:19PM 40.1633 -75.3828 180° South  Level Estimated
03:19PM 40.3500 -75.5000 169° South 226 260 6,900  Level Philadelphia TRACON
03:20PM 40.1101 -75.3568 159° South  Level Estimated
03:20PM 40.2833 -75.5000 180° South 223 257 6,900  Level Philadelphia TRACON
03:21PM 40.2333 -75.4833 166° South 223 257 7,000  Climbing Philadelphia TRACON
03:22PM 40.1500 -75.4833 180° South 227 261 7,000  Level Philadelphia TRACON
03:23PM 40.1000 -75.4667 166° South 231 266 7,000 -60 Level Philadelphia TRACON
03:24PM 40.0333 -75.4667 180° South 230 265 6,900 -540 Descending Philadelphia TRACON
03:25PM 39.9667 -75.4667 180° South 272 313 6,000 -720 Descending Philadelphia TRACON
03:26PM 39.9000 -75.5167 210° Southwest 247 284 5,400 -900 Descending Philadelphia TRACON
03:27PM 39.8333 -75.5167 180° South 237 273 4,300 -1,200 Descending Philadelphia TRACON
03:28PM 39.8000 -75.4833 142° Southeast 177 204 3,100 -1,200 Descending Philadelphia TRACON
03:29PM 39.8333 -75.4333 49° Northeast 163 188 2,000 -720 Descending Philadelphia TRACON
03:30PM 39.8333 -75.3833 90° East 142 163 1,700 -480 Descending Philadelphia TRACON
03:31PM 39.8500 -75.3500 57° Northeast 90 104 1,100 -600 Descending Philadelphia TRACON
03:32PM 39.8500 -75.3167 90° East 98 113 600 -480 Descending Philadelphia TRACON
03:33PM 39.8667 -75.2833 57° Northeast 97 112 200 -480 Descending Philadelphia TRACON